sensor_id;sensor_type;location;lat;lon;timestamp;P1;durP1;ratioP1;P2;durP2;ratioP2
14076;SDS011;7114;51.100;13.998;2022-12-26T00:01:50;19.25;;;7.35;;
14076;SDS011;7114;51.100;13.998;2022-12-26T00:04:17;19.63;;;7.55;;
14076;SDS011;7114;51.100;13.998;2022-12-26T00:06:44;20.10;;;7.73;;
14076;SDS011;7114;51.100;13.998;2022-12-26T00:09:12;18.65;;;7.47;;
14076;SDS011;7114;51.100;13.998;2022-12-26T00:11:38;18.95;;;7.85;;
14076;SDS011;7114;51.100;13.998;2022-12-26T00:14:05;20.63;;;7.95;;
14076;SDS011;7114;51.100;13.998;2022-12-26T00:16:33;19.45;;;7.50;;
14076;SDS011;7114;51.100;13.998;2022-12-26T00:19:00;17.57;;;7.33;;
14076;SDS011;7114;51.100;13.998;2022-12-26T00:21:29;21.38;;;7.60;;
14076;SDS011;7114;51.100;13.998;2022-12-26T00:23:56;17.95;;;7.10;;
14076;SDS011;7114;51.100;13.998;2022-12-26T00:26:25;20.05;;;7.47;;
14076;SDS011;7114;51.100;13.998;2022-12-26T00:28:53;20.35;;;7.68;;
14076;SDS011;7114;51.100;13.998;2022-12-26T00:31:20;17.17;;;7.53;;
14076;SDS011;7114;51.100;13.998;2022-12-26T00:33:48;19.27;;;7.38;;
14076;SDS011;7114;51.100;13.998;2022-12-26T00:36:15;18.33;;;7.63;;
14076;SDS011;7114;51.100;13.998;2022-12-26T00:38:42;19.08;;;7.25;;
14076;SDS011;7114;51.100;13.998;2022-12-26T00:41:10;19.42;;;7.57;;
14076;SDS011;7114;51.100;13.998;2022-12-26T00:43:38;18.43;;;7.13;;
14076;SDS011;7114;51.100;13.998;2022-12-26T00:46:04;18.42;;;7.65;;
14076;SDS011;7114;51.100;13.998;2022-12-26T00:48:31;19.23;;;7.03;;
14076;SDS011;7114;51.100;13.998;2022-12-26T00:50:57;19.05;;;7.65;;
14076;SDS011;7114;51.100;13.998;2022-12-26T00:53:24;19.08;;;7.72;;
14076;SDS011;7114;51.100;13.998;2022-12-26T00:55:50;19.20;;;7.77;;
14076;SDS011;7114;51.100;13.998;2022-12-26T00:58:17;19.83;;;7.72;;
14076;SDS011;7114;51.100;13.998;2022-12-26T01:00:45;19.67;;;7.28;;
14076;SDS011;7114;51.100;13.998;2022-12-26T01:03:11;18.20;;;7.75;;
14076;SDS011;7114;51.100;13.998;2022-12-26T01:05:39;18.20;;;7.22;;
14076;SDS011;7114;51.100;13.998;2022-12-26T01:08:06;17.63;;;7.30;;
14076;SDS011;7114;51.100;13.998;2022-12-26T01:10:32;18.15;;;6.63;;
14076;SDS011;7114;51.100;13.998;2022-12-26T01:12:58;17.33;;;7.43;;
14076;SDS011;7114;51.100;13.998;2022-12-26T01:15:24;18.92;;;7.22;;
14076;SDS011;7114;51.100;13.998;2022-12-26T01:17:52;20.77;;;8.23;;
14076;SDS011;7114;51.100;13.998;2022-12-26T01:20:18;17.73;;;7.13;;
14076;SDS011;7114;51.100;13.998;2022-12-26T01:22:44;20.92;;;7.88;;
14076;SDS011;7114;51.100;13.998;2022-12-26T01:25:11;19.88;;;7.68;;
14076;SDS011;7114;51.100;13.998;2022-12-26T01:27:37;19.33;;;7.75;;
14076;SDS011;7114;51.100;13.998;2022-12-26T01:30:04;20.95;;;8.00;;
14076;SDS011;7114;51.100;13.998;2022-12-26T01:32:31;17.90;;;7.60;;
14076;SDS011;7114;51.100;13.998;2022-12-26T01:34:58;17.98;;;7.05;;
14076;SDS011;7114;51.100;13.998;2022-12-26T01:37:25;17.98;;;7.57;;
14076;SDS011;7114;51.100;13.998;2022-12-26T01:39:51;19.02;;;7.65;;
14076;SDS011;7114;51.100;13.998;2022-12-26T01:42:18;18.17;;;7.38;;
14076;SDS011;7114;51.100;13.998;2022-12-26T01:44:54;21.00;;;7.50;;
14076;SDS011;7114;51.100;13.998;2022-12-26T01:47:23;18.35;;;7.40;;
14076;SDS011;7114;51.100;13.998;2022-12-26T01:49:51;20.45;;;7.85;;
14076;SDS011;7114;51.100;13.998;2022-12-26T01:52:22;17.67;;;7.40;;
14076;SDS011;7114;51.100;13.998;2022-12-26T01:54:52;18.67;;;7.50;;
14076;SDS011;7114;51.100;13.998;2022-12-26T01:57:20;19.00;;;7.53;;
14076;SDS011;7114;51.100;13.998;2022-12-26T01:59:49;17.40;;;7.47;;
14076;SDS011;7114;51.100;13.998;2022-12-26T02:02:17;18.17;;;7.82;;
14076;SDS011;7114;51.100;13.998;2022-12-26T02:04:44;20.27;;;7.35;;
14076;SDS011;7114;51.100;13.998;2022-12-26T02:07:32;18.02;;;7.32;;
14076;SDS011;7114;51.100;13.998;2022-12-26T02:09:59;18.57;;;7.80;;
14076;SDS011;7114;51.100;13.998;2022-12-26T02:12:27;20.90;;;8.43;;
14076;SDS011;7114;51.100;13.998;2022-12-26T02:14:54;19.80;;;8.20;;
14076;SDS011;7114;51.100;13.998;2022-12-26T02:17:21;20.17;;;7.60;;
14076;SDS011;7114;51.100;13.998;2022-12-26T02:19:49;22.23;;;9.00;;
14076;SDS011;7114;51.100;13.998;2022-12-26T02:22:23;19.17;;;8.10;;
14076;SDS011;7114;51.100;13.998;2022-12-26T02:25:06;20.58;;;8.25;;
14076;SDS011;7114;51.100;13.998;2022-12-26T02:27:52;18.65;;;7.53;;
14076;SDS011;7114;51.100;13.998;2022-12-26T02:30:32;21.15;;;8.35;;
14076;SDS011;7114;51.100;13.998;2022-12-26T02:33:09;21.33;;;7.95;;
14076;SDS011;7114;51.100;13.998;2022-12-26T02:38:44;21.67;;;8.40;;
14076;SDS011;7114;51.100;13.998;2022-12-26T02:41:17;17.83;;;7.60;;
14076;SDS011;7114;51.100;13.998;2022-12-26T02:43:51;20.40;;;7.80;;
14076;SDS011;7114;51.100;13.998;2022-12-26T02:46:25;18.90;;;7.93;;
14076;SDS011;7114;51.100;13.998;2022-12-26T02:49:16;19.73;;;7.63;;
14076;SDS011;7114;51.100;13.998;2022-12-26T02:51:47;19.55;;;7.50;;
14076;SDS011;7114;51.100;13.998;2022-12-26T02:54:38;20.48;;;7.90;;
14076;SDS011;7114;51.100;13.998;2022-12-26T02:57:27;20.42;;;7.63;;
14076;SDS011;7114;51.100;13.998;2022-12-26T03:00:16;19.25;;;7.60;;
14076;SDS011;7114;51.100;13.998;2022-12-26T03:03:03;18.90;;;7.13;;
14076;SDS011;7114;51.100;13.998;2022-12-26T03:06:03;18.70;;;6.93;;
14076;SDS011;7114;51.100;13.998;2022-12-26T03:08:50;19.88;;;8.05;;
14076;SDS011;7114;51.100;13.998;2022-12-26T03:11:37;19.17;;;7.40;;
14076;SDS011;7114;51.100;13.998;2022-12-26T03:14:23;18.60;;;7.35;;
14076;SDS011;7114;51.100;13.998;2022-12-26T03:16:52;19.53;;;7.57;;
14076;SDS011;7114;51.100;13.998;2022-12-26T03:19:41;19.55;;;7.57;;
14076;SDS011;7114;51.100;13.998;2022-12-26T03:22:22;18.23;;;7.63;;
14076;SDS011;7114;51.100;13.998;2022-12-26T03:24:55;18.70;;;7.10;;
14076;SDS011;7114;51.100;13.998;2022-12-26T03:27:39;19.73;;;7.63;;
14076;SDS011;7114;51.100;13.998;2022-12-26T03:30:06;19.40;;;8.07;;
14076;SDS011;7114;51.100;13.998;2022-12-26T03:32:51;17.70;;;7.65;;
14076;SDS011;7114;51.100;13.998;2022-12-26T03:35:19;18.40;;;7.72;;
14076;SDS011;7114;51.100;13.998;2022-12-26T03:37:46;18.63;;;7.25;;
14076;SDS011;7114;51.100;13.998;2022-12-26T03:40:23;17.90;;;6.80;;
14076;SDS011;7114;51.100;13.998;2022-12-26T03:43:18;17.90;;;6.90;;
14076;SDS011;7114;51.100;13.998;2022-12-26T03:46:08;18.80;;;7.30;;
14076;SDS011;7114;51.100;13.998;2022-12-26T03:49:00;18.73;;;7.05;;
14076;SDS011;7114;51.100;13.998;2022-12-26T03:51:51;16.30;;;6.50;;
14076;SDS011;7114;51.100;13.998;2022-12-26T03:54:40;16.35;;;6.50;;
14076;SDS011;7114;51.100;13.998;2022-12-26T03:57:29;17.00;;;5.97;;
14076;SDS011;7114;51.100;13.998;2022-12-26T04:00:24;14.45;;;6.00;;
14076;SDS011;7114;51.100;13.998;2022-12-26T04:03:12;15.15;;;5.45;;
14076;SDS011;7114;51.100;13.998;2022-12-26T04:05:56;12.80;;;4.72;;
14076;SDS011;7114;51.100;13.998;2022-12-26T04:08:44;13.80;;;5.07;;
14076;SDS011;7114;51.100;13.998;2022-12-26T04:11:37;15.17;;;4.50;;
14076;SDS011;7114;51.100;13.998;2022-12-26T04:14:26;11.52;;;4.18;;
14076;SDS011;7114;51.100;13.998;2022-12-26T04:17:20;11.57;;;3.78;;
14076;SDS011;7114;51.100;13.998;2022-12-26T04:20:07;12.65;;;4.10;;
14076;SDS011;7114;51.100;13.998;2022-12-26T04:22:39;12.05;;;3.90;;
14076;SDS011;7114;51.100;13.998;2022-12-26T04:25:30;13.37;;;3.60;;
14076;SDS011;7114;51.100;13.998;2022-12-26T04:28:17;12.10;;;3.50;;
14076;SDS011;7114;51.100;13.998;2022-12-26T04:31:02;10.13;;;3.67;;
14076;SDS011;7114;51.100;13.998;2022-12-26T04:33:50;9.18;;;2.95;;
14076;SDS011;7114;51.100;13.998;2022-12-26T04:36:44;9.95;;;3.05;;
14076;SDS011;7114;51.100;13.998;2022-12-26T04:39:31;9.63;;;3.10;;
14076;SDS011;7114;51.100;13.998;2022-12-26T04:42:18;8.70;;;2.70;;
14076;SDS011;7114;51.100;13.998;2022-12-26T04:45:04;9.80;;;3.13;;
14076;SDS011;7114;51.100;13.998;2022-12-26T04:47:31;8.43;;;2.50;;
14076;SDS011;7114;51.100;13.998;2022-12-26T04:49:58;8.73;;;2.70;;
14076;SDS011;7114;51.100;13.998;2022-12-26T04:52:39;9.37;;;2.70;;
14076;SDS011;7114;51.100;13.998;2022-12-26T04:55:23;8.50;;;2.60;;
14076;SDS011;7114;51.100;13.998;2022-12-26T04:57:52;7.95;;;2.28;;
14076;SDS011;7114;51.100;13.998;2022-12-26T05:00:18;7.88;;;2.60;;
14076;SDS011;7114;51.100;13.998;2022-12-26T05:02:46;6.60;;;2.15;;
14076;SDS011;7114;51.100;13.998;2022-12-26T05:05:30;8.27;;;2.27;;
14076;SDS011;7114;51.100;13.998;2022-12-26T05:08:34;6.60;;;2.00;;
14076;SDS011;7114;51.100;13.998;2022-12-26T05:11:19;7.18;;;1.70;;
14076;SDS011;7114;51.100;13.998;2022-12-26T05:13:47;6.80;;;1.60;;
14076;SDS011;7114;51.100;13.998;2022-12-26T05:16:13;6.07;;;1.42;;
14076;SDS011;7114;51.100;13.998;2022-12-26T05:18:57;7.30;;;1.60;;
14076;SDS011;7114;51.100;13.998;2022-12-26T05:21:41;5.60;;;1.30;;
14076;SDS011;7114;51.100;13.998;2022-12-26T05:24:26;6.03;;;1.35;;
14076;SDS011;7114;51.100;13.998;2022-12-26T05:27:11;6.65;;;1.70;;
14076;SDS011;7114;51.100;13.998;2022-12-26T05:29:58;6.80;;;1.80;;
14076;SDS011;7114;51.100;13.998;2022-12-26T05:32:24;6.40;;;1.73;;
14076;SDS011;7114;51.100;13.998;2022-12-26T05:35:08;7.78;;;2.00;;
14076;SDS011;7114;51.100;13.998;2022-12-26T05:37:34;7.47;;;2.00;;
14076;SDS011;7114;51.100;13.998;2022-12-26T05:40:01;7.10;;;1.88;;
14076;SDS011;7114;51.100;13.998;2022-12-26T05:42:27;9.65;;;2.70;;
14076;SDS011;7114;51.100;13.998;2022-12-26T05:44:53;7.27;;;2.10;;
14076;SDS011;7114;51.100;13.998;2022-12-26T05:47:21;7.43;;;1.95;;
14076;SDS011;7114;51.100;13.998;2022-12-26T05:49:47;7.60;;;2.00;;
14076;SDS011;7114;51.100;13.998;2022-12-26T05:52:13;7.13;;;1.90;;
14076;SDS011;7114;51.100;13.998;2022-12-26T05:54:40;7.50;;;2.45;;
14076;SDS011;7114;51.100;13.998;2022-12-26T05:57:06;6.13;;;1.70;;
14076;SDS011;7114;51.100;13.998;2022-12-26T05:59:32;7.35;;;1.90;;
14076;SDS011;7114;51.100;13.998;2022-12-26T06:01:58;7.05;;;1.73;;
14076;SDS011;7114;51.100;13.998;2022-12-26T06:04:26;5.70;;;1.40;;
14076;SDS011;7114;51.100;13.998;2022-12-26T06:06:54;6.78;;;1.65;;
14076;SDS011;7114;51.100;13.998;2022-12-26T06:09:20;6.57;;;1.30;;
14076;SDS011;7114;51.100;13.998;2022-12-26T06:11:47;5.78;;;1.20;;
14076;SDS011;7114;51.100;13.998;2022-12-26T06:14:13;7.03;;;1.30;;
14076;SDS011;7114;51.100;13.998;2022-12-26T06:16:40;5.90;;;1.00;;
14076;SDS011;7114;51.100;13.998;2022-12-26T06:19:06;6.30;;;1.10;;
14076;SDS011;7114;51.100;13.998;2022-12-26T06:21:33;6.33;;;1.10;;
14076;SDS011;7114;51.100;13.998;2022-12-26T06:24:00;5.50;;;1.30;;
14076;SDS011;7114;51.100;13.998;2022-12-26T06:26:26;6.88;;;1.58;;
14076;SDS011;7114;51.100;13.998;2022-12-26T06:28:52;6.38;;;1.23;;
14076;SDS011;7114;51.100;13.998;2022-12-26T06:31:19;5.40;;;1.20;;
14076;SDS011;7114;51.100;13.998;2022-12-26T06:33:47;4.97;;;1.10;;
14076;SDS011;7114;51.100;13.998;2022-12-26T06:36:15;5.47;;;1.10;;
14076;SDS011;7114;51.100;13.998;2022-12-26T06:38:44;6.25;;;1.45;;
14076;SDS011;7114;51.100;13.998;2022-12-26T06:41:11;6.25;;;1.30;;
14076;SDS011;7114;51.100;13.998;2022-12-26T06:43:39;6.88;;;1.48;;
14076;SDS011;7114;51.100;13.998;2022-12-26T06:46:06;7.33;;;1.17;;
14076;SDS011;7114;51.100;13.998;2022-12-26T06:48:33;5.40;;;1.10;;
14076;SDS011;7114;51.100;13.998;2022-12-26T06:51:03;6.63;;;1.20;;
14076;SDS011;7114;51.100;13.998;2022-12-26T06:53:29;5.90;;;1.30;;
14076;SDS011;7114;51.100;13.998;2022-12-26T06:56:03;7.50;;;1.50;;
14076;SDS011;7114;51.100;13.998;2022-12-26T06:58:30;6.07;;;0.97;;
14076;SDS011;7114;51.100;13.998;2022-12-26T07:01:02;5.35;;;1.00;;
14076;SDS011;7114;51.100;13.998;2022-12-26T07:03:29;6.38;;;1.10;;
14076;SDS011;7114;51.100;13.998;2022-12-26T07:05:55;7.95;;;1.55;;
14076;SDS011;7114;51.100;13.998;2022-12-26T07:08:21;5.85;;;1.40;;
14076;SDS011;7114;51.100;13.998;2022-12-26T07:10:47;6.60;;;1.40;;
14076;SDS011;7114;51.100;13.998;2022-12-26T07:13:15;5.20;;;1.10;;
14076;SDS011;7114;51.100;13.998;2022-12-26T07:15:42;6.13;;;1.60;;
14076;SDS011;7114;51.100;13.998;2022-12-26T07:18:08;7.53;;;1.40;;
14076;SDS011;7114;51.100;13.998;2022-12-26T07:20:34;6.30;;;1.30;;
14076;SDS011;7114;51.100;13.998;2022-12-26T07:23:02;6.73;;;1.40;;
14076;SDS011;7114;51.100;13.998;2022-12-26T07:25:28;5.97;;;1.27;;
14076;SDS011;7114;51.100;13.998;2022-12-26T07:27:55;6.20;;;1.20;;
14076;SDS011;7114;51.100;13.998;2022-12-26T07:30:22;5.53;;;1.30;;
14076;SDS011;7114;51.100;13.998;2022-12-26T07:32:48;5.35;;;1.50;;
14076;SDS011;7114;51.100;13.998;2022-12-26T07:35:15;8.60;;;1.70;;
14076;SDS011;7114;51.100;13.998;2022-12-26T07:37:41;6.85;;;1.67;;
14076;SDS011;7114;51.100;13.998;2022-12-26T07:40:08;6.05;;;1.42;;
14076;SDS011;7114;51.100;13.998;2022-12-26T07:42:35;6.45;;;1.80;;
14076;SDS011;7114;51.100;13.998;2022-12-26T07:45:01;7.22;;;1.85;;
14076;SDS011;7114;51.100;13.998;2022-12-26T07:47:28;7.10;;;1.50;;
14076;SDS011;7114;51.100;13.998;2022-12-26T07:49:55;7.00;;;1.50;;
14076;SDS011;7114;51.100;13.998;2022-12-26T07:52:21;7.53;;;1.80;;
14076;SDS011;7114;51.100;13.998;2022-12-26T07:54:47;6.65;;;2.00;;
14076;SDS011;7114;51.100;13.998;2022-12-26T07:57:13;6.50;;;1.80;;
14076;SDS011;7114;51.100;13.998;2022-12-26T07:59:40;7.03;;;1.60;;
14076;SDS011;7114;51.100;13.998;2022-12-26T08:02:07;8.23;;;2.00;;
14076;SDS011;7114;51.100;13.998;2022-12-26T08:04:35;6.57;;;1.55;;
14076;SDS011;7114;51.100;13.998;2022-12-26T08:07:02;6.53;;;1.65;;
14076;SDS011;7114;51.100;13.998;2022-12-26T08:09:28;7.32;;;1.50;;
14076;SDS011;7114;51.100;13.998;2022-12-26T08:11:54;7.13;;;1.83;;
14076;SDS011;7114;51.100;13.998;2022-12-26T08:14:20;7.40;;;1.50;;
14076;SDS011;7114;51.100;13.998;2022-12-26T08:16:47;6.13;;;1.60;;
14076;SDS011;7114;51.100;13.998;2022-12-26T08:19:13;5.90;;;1.60;;
14076;SDS011;7114;51.100;13.998;2022-12-26T08:21:41;6.97;;;1.58;;
14076;SDS011;7114;51.100;13.998;2022-12-26T08:24:07;8.00;;;1.50;;
14076;SDS011;7114;51.100;13.998;2022-12-26T08:26:33;5.90;;;1.40;;
14076;SDS011;7114;51.100;13.998;2022-12-26T08:28:59;7.10;;;1.55;;
14076;SDS011;7114;51.100;13.998;2022-12-26T08:31:26;7.47;;;1.60;;
14076;SDS011;7114;51.100;13.998;2022-12-26T08:33:53;7.93;;;1.35;;
14076;SDS011;7114;51.100;13.998;2022-12-26T08:36:20;6.33;;;1.60;;
14076;SDS011;7114;51.100;13.998;2022-12-26T08:38:47;6.28;;;1.60;;
14076;SDS011;7114;51.100;13.998;2022-12-26T08:41:14;6.75;;;1.50;;
14076;SDS011;7114;51.100;13.998;2022-12-26T08:43:41;7.07;;;1.75;;
14076;SDS011;7114;51.100;13.998;2022-12-26T08:46:08;7.53;;;1.70;;
14076;SDS011;7114;51.100;13.998;2022-12-26T08:48:36;8.90;;;2.50;;
14076;SDS011;7114;51.100;13.998;2022-12-26T08:51:04;7.75;;;2.75;;
14076;SDS011;7114;51.100;13.998;2022-12-26T08:53:32;7.45;;;2.35;;
14076;SDS011;7114;51.100;13.998;2022-12-26T08:56:02;7.07;;;2.10;;
14076;SDS011;7114;51.100;13.998;2022-12-26T08:58:29;6.75;;;2.40;;
14076;SDS011;7114;51.100;13.998;2022-12-26T09:01:03;6.50;;;1.90;;
14076;SDS011;7114;51.100;13.998;2022-12-26T09:03:30;6.93;;;1.75;;
14076;SDS011;7114;51.100;13.998;2022-12-26T09:05:57;6.60;;;1.60;;
14076;SDS011;7114;51.100;13.998;2022-12-26T09:08:24;6.47;;;1.70;;
14076;SDS011;7114;51.100;13.998;2022-12-26T09:10:50;6.68;;;1.35;;
14076;SDS011;7114;51.100;13.998;2022-12-26T09:13:18;6.57;;;1.30;;
14076;SDS011;7114;51.100;13.998;2022-12-26T09:15:44;7.85;;;1.40;;
14076;SDS011;7114;51.100;13.998;2022-12-26T09:18:11;5.50;;;1.40;;
14076;SDS011;7114;51.100;13.998;2022-12-26T09:20:37;7.85;;;1.27;;
14076;SDS011;7114;51.100;13.998;2022-12-26T09:23:03;6.57;;;1.23;;
14076;SDS011;7114;51.100;13.998;2022-12-26T09:25:31;5.20;;;1.07;;
14076;SDS011;7114;51.100;13.998;2022-12-26T09:27:57;6.10;;;1.17;;
14076;SDS011;7114;51.100;13.998;2022-12-26T09:30:25;6.20;;;1.30;;
14076;SDS011;7114;51.100;13.998;2022-12-26T09:32:51;5.35;;;1.08;;
14076;SDS011;7114;51.100;13.998;2022-12-26T09:35:18;7.07;;;1.60;;
14076;SDS011;7114;51.100;13.998;2022-12-26T09:37:44;9.07;;;1.40;;
14076;SDS011;7114;51.100;13.998;2022-12-26T09:40:17;5.32;;;1.33;;
14076;SDS011;7114;51.100;13.998;2022-12-26T09:42:48;7.28;;;1.50;;
14076;SDS011;7114;51.100;13.998;2022-12-26T09:45:23;7.03;;;1.20;;
14076;SDS011;7114;51.100;13.998;2022-12-26T09:48:00;5.85;;;1.55;;
14076;SDS011;7114;51.100;13.998;2022-12-26T09:50:30;7.33;;;1.60;;
14076;SDS011;7114;51.100;13.998;2022-12-26T09:52:59;6.00;;;1.40;;
14076;SDS011;7114;51.100;13.998;2022-12-26T09:55:31;7.10;;;1.70;;
14076;SDS011;7114;51.100;13.998;2022-12-26T09:58:03;5.75;;;1.20;;
14076;SDS011;7114;51.100;13.998;2022-12-26T10:00:36;5.43;;;1.23;;
14076;SDS011;7114;51.100;13.998;2022-12-26T10:03:04;5.80;;;1.30;;
14076;SDS011;7114;51.100;13.998;2022-12-26T10:05:33;5.15;;;1.10;;
14076;SDS011;7114;51.100;13.998;2022-12-26T10:08:02;5.53;;;1.23;;
14076;SDS011;7114;51.100;13.998;2022-12-26T10:10:38;5.65;;;1.25;;
14076;SDS011;7114;51.100;13.998;2022-12-26T10:13:11;5.75;;;1.50;;
14076;SDS011;7114;51.100;13.998;2022-12-26T10:15:44;5.93;;;1.27;;
14076;SDS011;7114;51.100;13.998;2022-12-26T10:18:15;6.90;;;1.40;;
14076;SDS011;7114;51.100;13.998;2022-12-26T10:20:51;6.85;;;1.40;;
14076;SDS011;7114;51.100;13.998;2022-12-26T10:23:30;6.28;;;1.40;;
14076;SDS011;7114;51.100;13.998;2022-12-26T10:25:59;6.35;;;1.50;;
14076;SDS011;7114;51.100;13.998;2022-12-26T10:28:31;5.57;;;1.30;;
14076;SDS011;7114;51.100;13.998;2022-12-26T10:31:03;7.57;;;1.67;;
14076;SDS011;7114;51.100;13.998;2022-12-26T10:33:34;5.35;;;1.40;;
14076;SDS011;7114;51.100;13.998;2022-12-26T10:36:04;7.00;;;1.65;;
14076;SDS011;7114;51.100;13.998;2022-12-26T10:38:32;5.82;;;1.50;;
14076;SDS011;7114;51.100;13.998;2022-12-26T10:41:02;5.10;;;1.27;;
14076;SDS011;7114;51.100;13.998;2022-12-26T10:43:33;6.18;;;1.40;;
14076;SDS011;7114;51.100;13.998;2022-12-26T10:46:11;6.20;;;1.30;;
14076;SDS011;7114;51.100;13.998;2022-12-26T10:48:43;7.55;;;1.60;;
14076;SDS011;7114;51.100;13.998;2022-12-26T10:51:10;6.90;;;1.45;;
14076;SDS011;7114;51.100;13.998;2022-12-26T10:53:39;5.77;;;1.30;;
14076;SDS011;7114;51.100;13.998;2022-12-26T10:56:07;7.97;;;1.40;;
14076;SDS011;7114;51.100;13.998;2022-12-26T10:58:35;6.35;;;1.30;;
14076;SDS011;7114;51.100;13.998;2022-12-26T11:03:58;6.07;;;1.50;;
14076;SDS011;7114;51.100;13.998;2022-12-26T11:06:26;6.07;;;1.67;;
14076;SDS011;7114;51.100;13.998;2022-12-26T11:08:53;5.97;;;1.40;;
14076;SDS011;7114;51.100;13.998;2022-12-26T11:11:20;6.43;;;2.03;;
14076;SDS011;7114;51.100;13.998;2022-12-26T11:13:48;5.65;;;1.65;;
14076;SDS011;7114;51.100;13.998;2022-12-26T11:16:22;7.20;;;1.90;;
14076;SDS011;7114;51.100;13.998;2022-12-26T11:18:50;5.93;;;1.50;;
14076;SDS011;7114;51.100;13.998;2022-12-26T11:21:19;6.68;;;1.77;;
14076;SDS011;7114;51.100;13.998;2022-12-26T11:23:47;6.25;;;1.60;;
14076;SDS011;7114;51.100;13.998;2022-12-26T11:26:18;8.57;;;1.50;;
14076;SDS011;7114;51.100;13.998;2022-12-26T11:28:46;7.30;;;1.63;;
14076;SDS011;7114;51.100;13.998;2022-12-26T11:31:18;7.37;;;1.67;;
14076;SDS011;7114;51.100;13.998;2022-12-26T11:33:48;7.10;;;1.80;;
14076;SDS011;7114;51.100;13.998;2022-12-26T11:36:18;8.43;;;2.55;;
14076;SDS011;7114;51.100;13.998;2022-12-26T11:38:47;8.30;;;2.75;;
14076;SDS011;7114;51.100;13.998;2022-12-26T11:41:16;8.15;;;2.20;;
14076;SDS011;7114;51.100;13.998;2022-12-26T11:44:10;7.33;;;2.17;;
14076;SDS011;7114;51.100;13.998;2022-12-26T11:46:40;6.85;;;1.80;;
14076;SDS011;7114;51.100;13.998;2022-12-26T11:49:13;6.05;;;2.10;;
14076;SDS011;7114;51.100;13.998;2022-12-26T11:51:44;6.93;;;2.40;;
14076;SDS011;7114;51.100;13.998;2022-12-26T11:54:21;5.80;;;1.98;;
14076;SDS011;7114;51.100;13.998;2022-12-26T11:56:58;5.60;;;1.83;;
14076;SDS011;7114;51.100;13.998;2022-12-26T11:59:38;6.55;;;1.55;;
14076;SDS011;7114;51.100;13.998;2022-12-26T12:02:15;6.22;;;1.80;;
14076;SDS011;7114;51.100;13.998;2022-12-26T12:04:49;6.57;;;1.42;;
14076;SDS011;7114;51.100;13.998;2022-12-26T12:07:21;7.22;;;1.85;;
14076;SDS011;7114;51.100;13.998;2022-12-26T12:09:56;5.10;;;1.30;;
14076;SDS011;7114;51.100;13.998;2022-12-26T12:12:27;5.30;;;1.30;;
14076;SDS011;7114;51.100;13.998;2022-12-26T12:14:58;5.80;;;1.63;;
14076;SDS011;7114;51.100;13.998;2022-12-26T12:17:29;5.85;;;1.20;;
14076;SDS011;7114;51.100;13.998;2022-12-26T12:20:08;6.68;;;1.70;;
14076;SDS011;7114;51.100;13.998;2022-12-26T12:25:50;6.25;;;1.40;;
14076;SDS011;7114;51.100;13.998;2022-12-26T12:28:32;5.53;;;1.38;;
14076;SDS011;7114;51.100;13.998;2022-12-26T12:31:10;6.03;;;1.38;;
14076;SDS011;7114;51.100;13.998;2022-12-26T12:33:41;8.75;;;2.40;;
14076;SDS011;7114;51.100;13.998;2022-12-26T12:36:12;7.00;;;1.80;;
14076;SDS011;7114;51.100;13.998;2022-12-26T12:38:47;5.85;;;1.42;;
14076;SDS011;7114;51.100;13.998;2022-12-26T12:41:29;5.50;;;1.33;;
14076;SDS011;7114;51.100;13.998;2022-12-26T12:44:17;4.72;;;0.80;;
14076;SDS011;7114;51.100;13.998;2022-12-26T12:46:49;5.63;;;1.33;;
14076;SDS011;7114;51.100;13.998;2022-12-26T12:49:27;8.50;;;2.40;;
14076;SDS011;7114;51.100;13.998;2022-12-26T12:52:08;6.88;;;2.05;;
14076;SDS011;7114;51.100;13.998;2022-12-26T12:54:47;6.25;;;1.70;;
14076;SDS011;7114;51.100;13.998;2022-12-26T12:57:25;6.20;;;1.40;;
14076;SDS011;7114;51.100;13.998;2022-12-26T12:59:56;5.47;;;1.50;;
14076;SDS011;7114;51.100;13.998;2022-12-26T13:02:29;5.00;;;1.20;;
14076;SDS011;7114;51.100;13.998;2022-12-26T13:04:58;4.47;;;0.70;;
14076;SDS011;7114;51.100;13.998;2022-12-26T13:07:30;4.80;;;0.93;;
14076;SDS011;7114;51.100;13.998;2022-12-26T13:09:59;5.30;;;1.02;;
14076;SDS011;7114;51.100;13.998;2022-12-26T13:12:29;4.35;;;0.85;;
14076;SDS011;7114;51.100;13.998;2022-12-26T13:15:00;4.60;;;0.80;;
14076;SDS011;7114;51.100;13.998;2022-12-26T13:17:29;4.90;;;0.90;;
14076;SDS011;7114;51.100;13.998;2022-12-26T13:19:59;4.18;;;0.80;;
14076;SDS011;7114;51.100;13.998;2022-12-26T13:22:29;4.03;;;0.30;;
14076;SDS011;7114;51.100;13.998;2022-12-26T13:25:18;2.00;;;0.20;;
14076;SDS011;7114;51.100;13.998;2022-12-26T13:27:45;2.90;;;0.30;;
14076;SDS011;7114;51.100;13.998;2022-12-26T13:30:14;3.22;;;0.40;;
14076;SDS011;7114;51.100;13.998;2022-12-26T13:32:42;3.42;;;0.40;;
14076;SDS011;7114;51.100;13.998;2022-12-26T13:35:44;4.30;;;0.50;;
14076;SDS011;7114;51.100;13.998;2022-12-26T13:38:16;4.55;;;0.50;;
14076;SDS011;7114;51.100;13.998;2022-12-26T13:40:44;5.23;;;0.50;;
14076;SDS011;7114;51.100;13.998;2022-12-26T13:43:15;3.53;;;0.50;;
14076;SDS011;7114;51.100;13.998;2022-12-26T13:46:01;3.88;;;0.80;;
14076;SDS011;7114;51.100;13.998;2022-12-26T13:51:44;5.65;;;0.70;;
14076;SDS011;7114;51.100;13.998;2022-12-26T13:54:12;6.80;;;1.70;;
14076;SDS011;7114;51.100;13.998;2022-12-26T13:59:42;6.80;;;1.92;;
14076;SDS011;7114;51.100;13.998;2022-12-26T14:02:19;6.93;;;1.50;;
14076;SDS011;7114;51.100;13.998;2022-12-26T14:05:09;5.47;;;1.10;;
14076;SDS011;7114;51.100;13.998;2022-12-26T14:07:49;4.67;;;0.67;;
14076;SDS011;7114;51.100;13.998;2022-12-26T14:10:22;4.15;;;0.55;;
14076;SDS011;7114;51.100;13.998;2022-12-26T14:12:53;4.82;;;1.10;;
14076;SDS011;7114;51.100;13.998;2022-12-26T14:15:31;3.90;;;0.70;;
14076;SDS011;7114;51.100;13.998;2022-12-26T14:18:16;4.68;;;0.68;;
14076;SDS011;7114;51.100;13.998;2022-12-26T14:20:49;4.90;;;0.97;;
14076;SDS011;7114;51.100;13.998;2022-12-26T14:23:23;5.53;;;0.80;;
14076;SDS011;7114;51.100;13.998;2022-12-26T14:25:56;5.13;;;0.80;;
14076;SDS011;7114;51.100;13.998;2022-12-26T14:28:26;6.28;;;1.10;;
14076;SDS011;7114;51.100;13.998;2022-12-26T14:31:01;6.55;;;1.10;;
14076;SDS011;7114;51.100;13.998;2022-12-26T14:33:37;6.47;;;1.00;;
14076;SDS011;7114;51.100;13.998;2022-12-26T14:36:13;5.40;;;0.90;;
14076;SDS011;7114;51.100;13.998;2022-12-26T14:38:45;4.25;;;0.60;;
14076;SDS011;7114;51.100;13.998;2022-12-26T14:41:15;5.50;;;0.73;;
14076;SDS011;7114;51.100;13.998;2022-12-26T14:43:56;4.50;;;0.55;;
14076;SDS011;7114;51.100;13.998;2022-12-26T14:52:31;3.90;;;0.50;;
14076;SDS011;7114;51.100;13.998;2022-12-26T14:58:18;4.40;;;0.60;;
14076;SDS011;7114;51.100;13.998;2022-12-26T15:00:49;5.07;;;0.70;;
14076;SDS011;7114;51.100;13.998;2022-12-26T15:03:26;3.92;;;0.55;;
14076;SDS011;7114;51.100;13.998;2022-12-26T15:09:14;4.53;;;0.60;;
14076;SDS011;7114;51.100;13.998;2022-12-26T15:12:03;4.93;;;0.50;;
14076;SDS011;7114;51.100;13.998;2022-12-26T15:14:56;5.23;;;0.67;;
14076;SDS011;7114;51.100;13.998;2022-12-26T15:17:36;4.70;;;0.70;;
14076;SDS011;7114;51.100;13.998;2022-12-26T15:20:14;5.30;;;0.75;;
14076;SDS011;7114;51.100;13.998;2022-12-26T15:23:09;6.32;;;1.20;;
14076;SDS011;7114;51.100;13.998;2022-12-26T15:28:37;9.17;;;3.20;;
14076;SDS011;7114;51.100;13.998;2022-12-26T15:31:30;8.82;;;3.13;;
14076;SDS011;7114;51.100;13.998;2022-12-26T15:34:01;8.50;;;2.70;;
14076;SDS011;7114;51.100;13.998;2022-12-26T15:36:45;7.13;;;2.15;;
14076;SDS011;7114;51.100;13.998;2022-12-26T15:39:18;6.95;;;1.90;;
14076;SDS011;7114;51.100;13.998;2022-12-26T15:41:51;6.50;;;1.70;;
14076;SDS011;7114;51.100;13.998;2022-12-26T15:44:23;5.50;;;1.20;;
14076;SDS011;7114;51.100;13.998;2022-12-26T15:46:54;5.50;;;1.27;;